Bowman, South Carolina
Current Conditions -  °F | °C
As of 2:53 PM on Saturday 25 Oct 2014 (Local Time) from KOGB Reporting Station
Clear Clear  
Wind Chill: 73°   Ceiling: Unl
Heat Index: 73°   Visibility: 10mi
Dew Point: 38°   Wind: 6mph
Humidity: 28%   Direction: 310°NW
Pressure: 29.97"   Gusts: NA
Location:  33.35°N, 80.68°W
Report Text: KOGB 251853Z AUTO 31005KT 10SM CLR 23/03 A2997 RMK AO2 SLP147 T02280033
Loading
Personal Weather Stations






























Interactive Weather Map
Tropical Storm Tracking
New forecast layout! Learn more

10-Day Weather Forecast

Advertisements
Track Severe Weather on mobile